sensor_id;sensor_type;location;lat;lon;timestamp;P1;durP1;ratioP1;P2;durP2;ratioP2
54125;SDS011;40360;52.992;6.796;2022-08-25T00:01:37;10.88;;;9.88;;
54125;SDS011;40360;52.992;6.796;2022-08-25T00:04:05;11.15;;;10.15;;
54125;SDS011;40360;52.992;6.796;2022-08-25T00:06:34;9.77;;;8.77;;
54125;SDS011;40360;52.992;6.796;2022-08-25T00:09:01;10.98;;;9.77;;
54125;SDS011;40360;52.992;6.796;2022-08-25T00:11:28;10.70;;;8.75;;
54125;SDS011;40360;52.992;6.796;2022-08-25T00:14:02;10.13;;;8.40;;
54125;SDS011;40360;52.992;6.796;2022-08-25T00:16:31;8.93;;;8.10;;
54125;SDS011;40360;52.992;6.796;2022-08-25T00:18:57;8.98;;;8.07;;
54125;SDS011;40360;52.992;6.796;2022-08-25T00:21:28;11.18;;;8.60;;
54125;SDS011;40360;52.992;6.796;2022-08-25T00:23:55;10.13;;;8.45;;
54125;SDS011;40360;52.992;6.796;2022-08-25T00:26:21;9.20;;;7.65;;
54125;SDS011;40360;52.992;6.796;2022-08-25T00:28:48;9.57;;;7.90;;
54125;SDS011;40360;52.992;6.796;2022-08-25T00:31:15;10.82;;;7.93;;
54125;SDS011;40360;52.992;6.796;2022-08-25T00:33:44;9.15;;;8.25;;
54125;SDS011;40360;52.992;6.796;2022-08-25T00:36:11;10.52;;;8.50;;
54125;SDS011;40360;52.992;6.796;2022-08-25T00:38:42;9.48;;;8.65;;
54125;SDS011;40360;52.992;6.796;2022-08-25T00:41:09;10.35;;;8.13;;
54125;SDS011;40360;52.992;6.796;2022-08-25T00:46:09;8.63;;;7.65;;
54125;SDS011;40360;52.992;6.796;2022-08-25T00:48:36;7.78;;;6.72;;
54125;SDS011;40360;52.992;6.796;2022-08-25T00:51:06;13.13;;;7.78;;
54125;SDS011;40360;52.992;6.796;2022-08-25T00:53:33;8.27;;;7.13;;
54125;SDS011;40360;52.992;6.796;2022-08-25T00:55:59;8.35;;;6.82;;
54125;SDS011;40360;52.992;6.796;2022-08-25T00:58:26;14.13;;;7.00;;
54125;SDS011;40360;52.992;6.796;2022-08-25T01:00:55;7.35;;;6.65;;
54125;SDS011;40360;52.992;6.796;2022-08-25T01:03:22;7.90;;;6.65;;
54125;SDS011;40360;52.992;6.796;2022-08-25T01:05:49;7.38;;;6.38;;
54125;SDS011;40360;52.992;6.796;2022-08-25T01:08:16;8.18;;;7.05;;
54125;SDS011;40360;52.992;6.796;2022-08-25T01:10:45;7.20;;;6.50;;
54125;SDS011;40360;52.992;6.796;2022-08-25T01:13:14;8.50;;;5.72;;
54125;SDS011;40360;52.992;6.796;2022-08-25T01:15:48;8.05;;;6.45;;
54125;SDS011;40360;52.992;6.796;2022-08-25T01:18:18;7.22;;;6.15;;
54125;SDS011;40360;52.992;6.796;2022-08-25T01:20:48;8.57;;;6.88;;
54125;SDS011;40360;52.992;6.796;2022-08-25T01:23:14;7.00;;;6.30;;
54125;SDS011;40360;52.992;6.796;2022-08-25T01:28:27;8.10;;;6.85;;
54125;SDS011;40360;52.992;6.796;2022-08-25T01:30:53;10.13;;;7.18;;
54125;SDS011;40360;52.992;6.796;2022-08-25T01:33:19;10.32;;;7.00;;
54125;SDS011;40360;52.992;6.796;2022-08-25T01:35:45;11.25;;;7.78;;
54125;SDS011;40360;52.992;6.796;2022-08-25T01:38:11;10.18;;;7.65;;
54125;SDS011;40360;52.992;6.796;2022-08-25T01:40:37;11.23;;;8.75;;
54125;SDS011;40360;52.992;6.796;2022-08-25T01:45:36;11.68;;;7.55;;
54125;SDS011;40360;52.992;6.796;2022-08-25T01:48:03;9.30;;;8.45;;
54125;SDS011;40360;52.992;6.796;2022-08-25T01:50:31;9.98;;;9.02;;
54125;SDS011;40360;52.992;6.796;2022-08-25T01:53:30;8.80;;;8.00;;
54125;SDS011;40360;52.992;6.796;2022-08-25T01:55:51;9.95;;;8.13;;
54125;SDS011;40360;52.992;6.796;2022-08-25T01:58:19;7.78;;;6.70;;
54125;SDS011;40360;52.992;6.796;2022-08-25T02:00:47;8.48;;;7.47;;
54125;SDS011;40360;52.992;6.796;2022-08-25T02:03:14;7.97;;;7.22;;
54125;SDS011;40360;52.992;6.796;2022-08-25T02:05:42;10.77;;;7.47;;
54125;SDS011;40360;52.992;6.796;2022-08-25T02:08:08;10.43;;;7.78;;
54125;SDS011;40360;52.992;6.796;2022-08-25T02:10:34;9.60;;;7.45;;
54125;SDS011;40360;52.992;6.796;2022-08-25T02:13:00;8.70;;;7.88;;
54125;SDS011;40360;52.992;6.796;2022-08-25T02:15:25;14.60;;;7.97;;
54125;SDS011;40360;52.992;6.796;2022-08-25T02:17:51;9.27;;;7.22;;
54125;SDS011;40360;52.992;6.796;2022-08-25T02:20:17;8.85;;;7.72;;
54125;SDS011;40360;52.992;6.796;2022-08-25T02:22:43;10.80;;;8.18;;
54125;SDS011;40360;52.992;6.796;2022-08-25T02:25:08;8.00;;;6.65;;
54125;SDS011;40360;52.992;6.796;2022-08-25T02:27:34;9.77;;;7.80;;
54125;SDS011;40360;52.992;6.796;2022-08-25T02:30:00;7.07;;;6.35;;
54125;SDS011;40360;52.992;6.796;2022-08-25T02:32:26;10.05;;;6.85;;
54125;SDS011;40360;52.992;6.796;2022-08-25T02:34:52;7.18;;;6.35;;
54125;SDS011;40360;52.992;6.796;2022-08-25T02:37:17;9.95;;;6.22;;
54125;SDS011;40360;52.992;6.796;2022-08-25T02:39:44;7.07;;;5.97;;
54125;SDS011;40360;52.992;6.796;2022-08-25T02:42:10;8.10;;;5.80;;
54125;SDS011;40360;52.992;6.796;2022-08-25T02:44:36;7.47;;;6.00;;
54125;SDS011;40360;52.992;6.796;2022-08-25T02:47:02;8.48;;;5.40;;
54125;SDS011;40360;52.992;6.796;2022-08-25T02:49:28;22.55;;;6.45;;
54125;SDS011;40360;52.992;6.796;2022-08-25T02:51:54;7.57;;;5.53;;
54125;SDS011;40360;52.992;6.796;2022-08-25T02:54:20;6.63;;;5.97;;
54125;SDS011;40360;52.992;6.796;2022-08-25T02:56:47;7.93;;;6.13;;
54125;SDS011;40360;52.992;6.796;2022-08-25T02:59:12;7.38;;;5.72;;
54125;SDS011;40360;52.992;6.796;2022-08-25T03:01:38;6.68;;;5.13;;
54125;SDS011;40360;52.992;6.796;2022-08-25T03:04:03;8.68;;;6.47;;
54125;SDS011;40360;52.992;6.796;2022-08-25T03:06:31;8.68;;;6.15;;
54125;SDS011;40360;52.992;6.796;2022-08-25T03:08:56;7.43;;;5.93;;
54125;SDS011;40360;52.992;6.796;2022-08-25T03:11:22;11.85;;;6.38;;
54125;SDS011;40360;52.992;6.796;2022-08-25T03:13:48;6.25;;;5.57;;
54125;SDS011;40360;52.992;6.796;2022-08-25T03:16:15;9.70;;;5.70;;
54125;SDS011;40360;52.992;6.796;2022-08-25T03:18:41;10.90;;;5.60;;
54125;SDS011;40360;52.992;6.796;2022-08-25T03:21:07;10.68;;;5.22;;
54125;SDS011;40360;52.992;6.796;2022-08-25T03:23:33;7.30;;;5.53;;
54125;SDS011;40360;52.992;6.796;2022-08-25T03:25:59;9.23;;;6.30;;
54125;SDS011;40360;52.992;6.796;2022-08-25T03:28:44;7.22;;;6.22;;
54125;SDS011;40360;52.992;6.796;2022-08-25T03:31:10;8.73;;;5.85;;
54125;SDS011;40360;52.992;6.796;2022-08-25T03:33:36;7.75;;;6.22;;
54125;SDS011;40360;52.992;6.796;2022-08-25T03:36:02;7.60;;;6.00;;
54125;SDS011;40360;52.992;6.796;2022-08-25T03:38:29;9.20;;;6.82;;
54125;SDS011;40360;52.992;6.796;2022-08-25T03:40:55;12.30;;;6.88;;
54125;SDS011;40360;52.992;6.796;2022-08-25T03:43:21;9.48;;;5.93;;
54125;SDS011;40360;52.992;6.796;2022-08-25T03:45:46;8.98;;;6.30;;
54125;SDS011;40360;52.992;6.796;2022-08-25T03:48:13;8.15;;;6.55;;
54125;SDS011;40360;52.992;6.796;2022-08-25T03:50:43;9.10;;;6.55;;
54125;SDS011;40360;52.992;6.796;2022-08-25T03:53:13;10.05;;;6.90;;
54125;SDS011;40360;52.992;6.796;2022-08-25T03:55:39;7.80;;;5.95;;
54125;SDS011;40360;52.992;6.796;2022-08-25T03:58:04;7.80;;;6.28;;
54125;SDS011;40360;52.992;6.796;2022-08-25T04:00:30;9.27;;;6.72;;
54125;SDS011;40360;52.992;6.796;2022-08-25T04:02:56;9.02;;;6.38;;
54125;SDS011;40360;52.992;6.796;2022-08-25T04:05:21;8.43;;;7.15;;
54125;SDS011;40360;52.992;6.796;2022-08-25T04:07:47;11.45;;;6.80;;
54125;SDS011;40360;52.992;6.796;2022-08-25T04:10:12;9.32;;;7.30;;
54125;SDS011;40360;52.992;6.796;2022-08-25T04:12:38;7.93;;;6.22;;
54125;SDS011;40360;52.992;6.796;2022-08-25T04:15:04;9.43;;;6.55;;
54125;SDS011;40360;52.992;6.796;2022-08-25T04:17:31;11.13;;;6.97;;
54125;SDS011;40360;52.992;6.796;2022-08-25T04:19:57;11.77;;;6.75;;
54125;SDS011;40360;52.992;6.796;2022-08-25T04:22:23;12.32;;;6.72;;
54125;SDS011;40360;52.992;6.796;2022-08-25T04:24:49;7.45;;;6.60;;
54125;SDS011;40360;52.992;6.796;2022-08-25T04:27:14;7.32;;;6.63;;
54125;SDS011;40360;52.992;6.796;2022-08-25T04:29:40;10.52;;;6.57;;
54125;SDS011;40360;52.992;6.796;2022-08-25T04:32:06;7.10;;;6.40;;
54125;SDS011;40360;52.992;6.796;2022-08-25T04:34:32;9.45;;;6.38;;
54125;SDS011;40360;52.992;6.796;2022-08-25T04:36:59;8.73;;;6.60;;
54125;SDS011;40360;52.992;6.796;2022-08-25T04:39:26;7.10;;;6.40;;
54125;SDS011;40360;52.992;6.796;2022-08-25T04:41:52;9.15;;;6.80;;
54125;SDS011;40360;52.992;6.796;2022-08-25T04:44:18;9.50;;;6.45;;
54125;SDS011;40360;52.992;6.796;2022-08-25T04:46:43;8.93;;;6.82;;
54125;SDS011;40360;52.992;6.796;2022-08-25T04:49:09;9.13;;;6.72;;
54125;SDS011;40360;52.992;6.796;2022-08-25T04:51:37;9.20;;;6.78;;
54125;SDS011;40360;52.992;6.796;2022-08-25T04:54:05;8.90;;;6.43;;
54125;SDS011;40360;52.992;6.796;2022-08-25T04:56:35;13.38;;;7.20;;
54125;SDS011;40360;52.992;6.796;2022-08-25T04:59:04;10.75;;;6.85;;
54125;SDS011;40360;52.992;6.796;2022-08-25T05:01:32;10.10;;;7.32;;
54125;SDS011;40360;52.992;6.796;2022-08-25T05:21:05;10.73;;;7.60;;
54125;SDS011;40360;52.992;6.796;2022-08-25T05:23:33;8.43;;;7.63;;
54125;SDS011;40360;52.992;6.796;2022-08-25T05:26:04;9.52;;;7.20;;
54125;SDS011;40360;52.992;6.796;2022-08-25T05:28:35;9.10;;;6.32;;
54125;SDS011;40360;52.992;6.796;2022-08-25T05:31:02;10.43;;;6.40;;
54125;SDS011;40360;52.992;6.796;2022-08-25T05:33:28;9.02;;;7.07;;
54125;SDS011;40360;52.992;6.796;2022-08-25T05:35:55;11.50;;;7.80;;
54125;SDS011;40360;52.992;6.796;2022-08-25T05:38:20;9.23;;;6.22;;
54125;SDS011;40360;52.992;6.796;2022-08-25T05:40:46;8.57;;;6.50;;
54125;SDS011;40360;52.992;6.796;2022-08-25T05:43:12;9.90;;;6.82;;
54125;SDS011;40360;52.992;6.796;2022-08-25T05:45:39;8.38;;;6.63;;
54125;SDS011;40360;52.992;6.796;2022-08-25T05:48:05;11.68;;;6.50;;
54125;SDS011;40360;52.992;6.796;2022-08-25T05:50:31;7.78;;;6.97;;
54125;SDS011;40360;52.992;6.796;2022-08-25T05:52:57;8.20;;;7.05;;
54125;SDS011;40360;52.992;6.796;2022-08-25T05:55:22;8.57;;;7.72;;
54125;SDS011;40360;52.992;6.796;2022-08-25T05:57:48;10.82;;;7.38;;
54125;SDS011;40360;52.992;6.796;2022-08-25T06:00:14;8.80;;;7.22;;
54125;SDS011;40360;52.992;6.796;2022-08-25T06:02:41;8.32;;;6.55;;
54125;SDS011;40360;52.992;6.796;2022-08-25T06:05:26;8.10;;;6.53;;
54125;SDS011;40360;52.992;6.796;2022-08-25T06:07:53;8.65;;;7.15;;
54125;SDS011;40360;52.992;6.796;2022-08-25T06:10:19;9.43;;;6.53;;
54125;SDS011;40360;52.992;6.796;2022-08-25T06:12:46;11.10;;;7.40;;
54125;SDS011;40360;52.992;6.796;2022-08-25T06:15:13;12.40;;;7.18;;
54125;SDS011;40360;52.992;6.796;2022-08-25T06:17:41;12.13;;;6.90;;
54125;SDS011;40360;52.992;6.796;2022-08-25T06:20:11;7.38;;;6.30;;
54125;SDS011;40360;52.992;6.796;2022-08-25T06:22:41;11.23;;;7.35;;
54125;SDS011;40360;52.992;6.796;2022-08-25T06:25:08;7.88;;;6.70;;
54125;SDS011;40360;52.992;6.796;2022-08-25T06:27:35;12.63;;;6.55;;
54125;SDS011;40360;52.992;6.796;2022-08-25T06:30:01;12.20;;;7.18;;
54125;SDS011;40360;52.992;6.796;2022-08-25T06:32:30;8.43;;;6.85;;
54125;SDS011;40360;52.992;6.796;2022-08-25T06:34:56;7.63;;;6.55;;
54125;SDS011;40360;52.992;6.796;2022-08-25T06:37:23;8.60;;;7.35;;
54125;SDS011;40360;52.992;6.796;2022-08-25T06:39:48;9.00;;;6.28;;
54125;SDS011;40360;52.992;6.796;2022-08-25T06:42:14;11.38;;;7.05;;
54125;SDS011;40360;52.992;6.796;2022-08-25T06:44:40;12.10;;;7.75;;
54125;SDS011;40360;52.992;6.796;2022-08-25T06:47:05;8.32;;;6.93;;
54125;SDS011;40360;52.992;6.796;2022-08-25T06:49:31;8.77;;;7.25;;
54125;SDS011;40360;52.992;6.796;2022-08-25T06:51:57;10.30;;;7.88;;
54125;SDS011;40360;52.992;6.796;2022-08-25T06:54:23;10.52;;;7.10;;
54125;SDS011;40360;52.992;6.796;2022-08-25T06:56:48;8.85;;;7.28;;
54125;SDS011;40360;52.992;6.796;2022-08-25T06:59:14;8.60;;;6.47;;
54125;SDS011;40360;52.992;6.796;2022-08-25T07:01:41;12.90;;;6.78;;
54125;SDS011;40360;52.992;6.796;2022-08-25T07:04:07;9.45;;;6.85;;
54125;SDS011;40360;52.992;6.796;2022-08-25T07:06:33;10.77;;;7.25;;
54125;SDS011;40360;52.992;6.796;2022-08-25T07:09:00;11.98;;;7.28;;
54125;SDS011;40360;52.992;6.796;2022-08-25T07:11:27;8.18;;;6.55;;
54125;SDS011;40360;52.992;6.796;2022-08-25T07:13:53;9.88;;;6.88;;
54125;SDS011;40360;52.992;6.796;2022-08-25T07:16:19;10.10;;;6.88;;
54125;SDS011;40360;52.992;6.796;2022-08-25T07:18:45;13.30;;;7.82;;
54125;SDS011;40360;52.992;6.796;2022-08-25T07:21:13;8.50;;;6.50;;
54125;SDS011;40360;52.992;6.796;2022-08-25T07:23:39;10.73;;;6.40;;
54125;SDS011;40360;52.992;6.796;2022-08-25T07:26:07;8.15;;;6.88;;
54125;SDS011;40360;52.992;6.796;2022-08-25T07:28:38;11.68;;;6.80;;
54125;SDS011;40360;52.992;6.796;2022-08-25T07:31:04;9.60;;;6.97;;
54125;SDS011;40360;52.992;6.796;2022-08-25T07:33:30;10.75;;;6.95;;
54125;SDS011;40360;52.992;6.796;2022-08-25T07:35:56;10.10;;;6.72;;
54125;SDS011;40360;52.992;6.796;2022-08-25T07:38:22;9.60;;;6.72;;
54125;SDS011;40360;52.992;6.796;2022-08-25T07:40:48;9.52;;;6.82;;
54125;SDS011;40360;52.992;6.796;2022-08-25T07:43:19;9.00;;;6.40;;
54125;SDS011;40360;52.992;6.796;2022-08-25T07:45:46;12.32;;;7.05;;
54125;SDS011;40360;52.992;6.796;2022-08-25T07:48:14;9.13;;;6.05;;
54125;SDS011;40360;52.992;6.796;2022-08-25T07:50:44;9.00;;;6.35;;
54125;SDS011;40360;52.992;6.796;2022-08-25T07:53:11;7.60;;;5.57;;
54125;SDS011;40360;52.992;6.796;2022-08-25T07:55:38;7.57;;;5.32;;
54125;SDS011;40360;52.992;6.796;2022-08-25T07:58:05;9.98;;;6.22;;
54125;SDS011;40360;52.992;6.796;2022-08-25T08:00:32;10.10;;;5.95;;
54125;SDS011;40360;52.992;6.796;2022-08-25T08:03:01;10.63;;;5.90;;
54125;SDS011;40360;52.992;6.796;2022-08-25T08:05:28;10.10;;;6.20;;
54125;SDS011;40360;52.992;6.796;2022-08-25T08:07:54;10.30;;;6.15;;
54125;SDS011;40360;52.992;6.796;2022-08-25T08:10:21;7.18;;;5.90;;
54125;SDS011;40360;52.992;6.796;2022-08-25T08:12:47;9.20;;;5.88;;
54125;SDS011;40360;52.992;6.796;2022-08-25T08:15:13;10.30;;;5.20;;
54125;SDS011;40360;52.992;6.796;2022-08-25T08:17:39;7.72;;;5.65;;
54125;SDS011;40360;52.992;6.796;2022-08-25T08:20:06;8.07;;;5.63;;
54125;SDS011;40360;52.992;6.796;2022-08-25T08:22:34;9.05;;;5.78;;
54125;SDS011;40360;52.992;6.796;2022-08-25T08:25:01;10.02;;;5.53;;
54125;SDS011;40360;52.992;6.796;2022-08-25T08:27:27;10.48;;;5.72;;
54125;SDS011;40360;52.992;6.796;2022-08-25T08:29:53;7.78;;;4.95;;
54125;SDS011;40360;52.992;6.796;2022-08-25T08:32:18;8.55;;;4.85;;
54125;SDS011;40360;52.992;6.796;2022-08-25T08:34:44;6.85;;;5.68;;
54125;SDS011;40360;52.992;6.796;2022-08-25T08:37:11;10.60;;;5.85;;
54125;SDS011;40360;52.992;6.796;2022-08-25T08:39:37;10.07;;;5.82;;
54125;SDS011;40360;52.992;6.796;2022-08-25T08:45:47;8.70;;;4.93;;
54125;SDS011;40360;52.992;6.796;2022-08-25T08:53:44;9.98;;;4.70;;
54125;SDS011;40360;52.992;6.796;2022-08-25T08:56:22;6.65;;;4.20;;
54125;SDS011;40360;52.992;6.796;2022-08-25T08:58:54;10.02;;;4.82;;
54125;SDS011;40360;52.992;6.796;2022-08-25T09:01:27;8.38;;;4.40;;
54125;SDS011;40360;52.992;6.796;2022-08-25T09:03:59;13.52;;;4.90;;
54125;SDS011;40360;52.992;6.796;2022-08-25T09:06:37;6.10;;;4.33;;
54125;SDS011;40360;52.992;6.796;2022-08-25T09:09:30;6.13;;;4.00;;
54125;SDS011;40360;52.992;6.796;2022-08-25T09:14:52;8.60;;;4.10;;
54125;SDS011;40360;52.992;6.796;2022-08-25T09:17:33;18.65;;;4.97;;
54125;SDS011;40360;52.992;6.796;2022-08-25T09:25:38;5.88;;;4.40;;
54125;SDS011;40360;52.992;6.796;2022-08-25T09:28:20;7.38;;;4.32;;
54125;SDS011;40360;52.992;6.796;2022-08-25T09:31:02;9.18;;;4.10;;
54125;SDS011;40360;52.992;6.796;2022-08-25T09:33:37;8.93;;;4.15;;
54125;SDS011;40360;52.992;6.796;2022-08-25T09:36:03;6.32;;;3.75;;
54125;SDS011;40360;52.992;6.796;2022-08-25T09:38:29;8.73;;;4.07;;
54125;SDS011;40360;52.992;6.796;2022-08-25T09:40:56;6.88;;;3.20;;
54125;SDS011;40360;52.992;6.796;2022-08-25T09:48:47;4.95;;;4.05;;
54125;SDS011;40360;52.992;6.796;2022-08-25T09:51:20;5.88;;;3.13;;
54125;SDS011;40360;52.992;6.796;2022-08-25T09:54:03;4.88;;;3.50;;
54125;SDS011;40360;52.992;6.796;2022-08-25T09:57:13;9.32;;;4.13;;
54125;SDS011;40360;52.992;6.796;2022-08-25T09:59:33;4.07;;;3.10;;
54125;SDS011;40360;52.992;6.796;2022-08-25T10:04:44;7.70;;;3.60;;
54125;SDS011;40360;52.992;6.796;2022-08-25T10:07:29;5.57;;;3.40;;
54125;SDS011;40360;52.992;6.796;2022-08-25T10:10:05;8.20;;;3.80;;
54125;SDS011;40360;52.992;6.796;2022-08-25T10:12:45;4.75;;;3.33;;
54125;SDS011;40360;52.992;6.796;2022-08-25T10:17:42;7.05;;;3.45;;
54125;SDS011;40360;52.992;6.796;2022-08-25T10:22:42;3.63;;;2.75;;
54125;SDS011;40360;52.992;6.796;2022-08-25T10:25:13;7.28;;;3.25;;
54125;SDS011;40360;52.992;6.796;2022-08-25T10:27:59;7.03;;;3.50;;
54125;SDS011;40360;52.992;6.796;2022-08-25T10:30:47;8.77;;;3.25;;
54125;SDS011;40360;52.992;6.796;2022-08-25T10:36:19;5.90;;;3.65;;
54125;SDS011;40360;52.992;6.796;2022-08-25T10:38:54;6.47;;;3.28;;
54125;SDS011;40360;52.992;6.796;2022-08-25T10:47:15;3.47;;;3.03;;
54125;SDS011;40360;52.992;6.796;2022-08-25T10:49:52;4.30;;;2.80;;
54125;SDS011;40360;52.992;6.796;2022-08-25T10:55:03;7.38;;;3.58;;
54125;SDS011;40360;52.992;6.796;2022-08-25T10:57:37;11.30;;;3.55;;
54125;SDS011;40360;52.992;6.796;2022-08-25T11:00:06;12.40;;;3.50;;
54125;SDS011;40360;52.992;6.796;2022-08-25T11:05:30;5.57;;;3.15;;
54125;SDS011;40360;52.992;6.796;2022-08-25T11:08:11;6.13;;;3.40;;
54125;SDS011;40360;52.992;6.796;2022-08-25T11:10:56;11.88;;;4.07;;
54125;SDS011;40360;52.992;6.796;2022-08-25T11:13:32;12.85;;;3.88;;
54125;SDS011;40360;52.992;6.796;2022-08-25T11:16:15;14.45;;;3.95;;
54125;SDS011;40360;52.992;6.796;2022-08-25T11:30:19;4.60;;;3.10;;
54125;SDS011;40360;52.992;6.796;2022-08-25T11:32:51;3.80;;;2.97;;
54125;SDS011;40360;52.992;6.796;2022-08-25T11:35:19;8.43;;;3.33;;
54125;SDS011;40360;52.992;6.796;2022-08-25T11:38:19;6.30;;;3.03;;
54125;SDS011;40360;52.992;6.796;2022-08-25T11:43:45;4.65;;;3.15;;
54125;SDS011;40360;52.992;6.796;2022-08-25T11:54:56;9.77;;;3.53;;
54125;SDS011;40360;52.992;6.796;2022-08-25T11:57:30;7.07;;;2.90;;
54125;SDS011;40360;52.992;6.796;2022-08-25T12:00:10;19.55;;;4.22;;
54125;SDS011;40360;52.992;6.796;2022-08-25T12:10:22;5.40;;;3.10;;
54125;SDS011;40360;52.992;6.796;2022-08-25T12:12:57;6.85;;;2.78;;
54125;SDS011;40360;52.992;6.796;2022-08-25T12:15:26;5.63;;;3.30;;
54125;SDS011;40360;52.992;6.796;2022-08-25T12:18:16;4.07;;;3.08;;
54125;SDS011;40360;52.992;6.796;2022-08-25T12:26:18;5.60;;;3.13;;
54125;SDS011;40360;52.992;6.796;2022-08-25T12:34:29;5.90;;;3.33;;
54125;SDS011;40360;52.992;6.796;2022-08-25T12:37:12;3.85;;;3.05;;
54125;SDS011;40360;52.992;6.796;2022-08-25T12:40:04;13.25;;;3.72;;
54125;SDS011;40360;52.992;6.796;2022-08-25T12:42:39;4.00;;;2.80;;
54125;SDS011;40360;52.992;6.796;2022-08-25T12:45:13;6.28;;;2.67;;
54125;SDS011;40360;52.992;6.796;2022-08-25T12:48:38;5.07;;;3.80;;
54125;SDS011;40360;52.992;6.796;2022-08-25T12:56:04;5.07;;;3.13;;
54125;SDS011;40360;52.992;6.796;2022-08-25T12:59:02;5.85;;;3.10;;
54125;SDS011;40360;52.992;6.796;2022-08-25T13:01:47;4.25;;;2.83;;
54125;SDS011;40360;52.992;6.796;2022-08-25T13:07:20;4.68;;;2.95;;
54125;SDS011;40360;52.992;6.796;2022-08-25T13:15:47;5.35;;;3.42;;
54125;SDS011;40360;52.992;6.796;2022-08-25T13:21:17;5.10;;;3.33;;
54125;SDS011;40360;52.992;6.796;2022-08-25T13:23:46;5.50;;;3.90;;
54125;SDS011;40360;52.992;6.796;2022-08-25T13:26:27;5.57;;;3.30;;
54125;SDS011;40360;52.992;6.796;2022-08-25T13:28:59;6.90;;;3.20;;
54125;SDS011;40360;52.992;6.796;2022-08-25T13:31:36;5.10;;;3.58;;
54125;SDS011;40360;52.992;6.796;2022-08-25T13:34:04;5.28;;;3.72;;
54125;SDS011;40360;52.992;6.796;2022-08-25T13:36:41;4.03;;;2.92;;
54125;SDS011;40360;52.992;6.796;2022-08-25T13:39:28;6.55;;;3.97;;
54125;SDS011;40360;52.992;6.796;2022-08-25T13:41:57;6.85;;;3.35;;
54125;SDS011;40360;52.992;6.796;2022-08-25T13:44:24;5.20;;;3.33;;
54125;SDS011;40360;52.992;6.796;2022-08-25T13:49:42;4.00;;;3.35;;
54125;SDS011;40360;52.992;6.796;2022-08-25T13:52:30;6.72;;;3.88;;
54125;SDS011;40360;52.992;6.796;2022-08-25T13:54:58;6.20;;;3.65;;
54125;SDS011;40360;52.992;6.796;2022-08-25T13:57:26;3.33;;;3.03;;
54125;SDS011;40360;52.992;6.796;2022-08-25T13:59:56;5.88;;;3.42;;
54125;SDS011;40360;52.992;6.796;2022-08-25T14:02:48;3.67;;;3.20;;
54125;SDS011;40360;52.992;6.796;2022-08-25T14:05:14;5.05;;;3.03;;
54125;SDS011;40360;52.992;6.796;2022-08-25T14:07:53;5.30;;;3.33;;
54125;SDS011;40360;52.992;6.796;2022-08-25T14:10:41;3.45;;;3.03;;
54125;SDS011;40360;52.992;6.796;2022-08-25T14:13:15;7.97;;;3.42;;
54125;SDS011;40360;52.992;6.796;2022-08-25T14:15:50;6.68;;;3.28;;
54125;SDS011;40360;52.992;6.796;2022-08-25T14:20:47;6.57;;;3.15;;
54125;SDS011;40360;52.992;6.796;2022-08-25T14:23:20;5.00;;;3.25;;
54125;SDS011;40360;52.992;6.796;2022-08-25T14:25:48;5.30;;;3.47;;
54125;SDS011;40360;52.992;6.796;2022-08-25T14:28:16;6.05;;;3.45;;
54125;SDS011;40360;52.992;6.796;2022-08-25T14:30:53;7.90;;;3.47;;
54125;SDS011;40360;52.992;6.796;2022-08-25T14:33:24;5.25;;;4.35;;
54125;SDS011;40360;52.992;6.796;2022-08-25T14:35:54;5.22;;;3.47;;
54125;SDS011;40360;52.992;6.796;2022-08-25T14:38:23;7.32;;;3.83;;
54125;SDS011;40360;52.992;6.796;2022-08-25T14:40:49;4.45;;;3.42;;
54125;SDS011;40360;52.992;6.796;2022-08-25T14:43:16;10.20;;;4.20;;
54125;SDS011;40360;52.992;6.796;2022-08-25T14:45:44;5.85;;;3.95;;
54125;SDS011;40360;52.992;6.796;2022-08-25T14:48:30;3.95;;;3.55;;
54125;SDS011;40360;52.992;6.796;2022-08-25T14:51:03;5.55;;;3.45;;
54125;SDS011;40360;52.992;6.796;2022-08-25T14:53:29;4.95;;;3.25;;
54125;SDS011;40360;52.992;6.796;2022-08-25T14:55:54;6.63;;;3.47;;
54125;SDS011;40360;52.992;6.796;2022-08-25T14:58:20;5.25;;;3.65;;
54125;SDS011;40360;52.992;6.796;2022-08-25T15:00:46;6.30;;;3.50;;
54125;SDS011;40360;52.992;6.796;2022-08-25T15:03:14;3.80;;;3.40;;
54125;SDS011;40360;52.992;6.796;2022-08-25T15:05:58;4.30;;;3.90;;
54125;SDS011;40360;52.992;6.796;2022-08-25T15:08:25;6.32;;;3.78;;
54125;SDS011;40360;52.992;6.796;2022-08-25T15:11:09;5.07;;;3.97;;
54125;SDS011;40360;52.992;6.796;2022-08-25T15:13:34;3.78;;;3.38;;
54125;SDS011;40360;52.992;6.796;2022-08-25T15:16:00;4.68;;;3.45;;
54125;SDS011;40360;52.992;6.796;2022-08-25T15:18:26;4.65;;;3.88;;
54125;SDS011;40360;52.992;6.796;2022-08-25T15:20:52;6.57;;;4.47;;
54125;SDS011;40360;52.992;6.796;2022-08-25T15:23:18;5.35;;;3.65;;
54125;SDS011;40360;52.992;6.796;2022-08-25T15:25:44;5.13;;;4.00;;
54125;SDS011;40360;52.992;6.796;2022-08-25T15:28:11;6.55;;;3.67;;
54125;SDS011;40360;52.992;6.796;2022-08-25T15:30:37;4.43;;;3.50;;
54125;SDS011;40360;52.992;6.796;2022-08-25T15:33:02;4.90;;;4.07;;
54125;SDS011;40360;52.992;6.796;2022-08-25T15:35:28;3.78;;;3.17;;
54125;SDS011;40360;52.992;6.796;2022-08-25T15:37:54;5.05;;;3.67;;
54125;SDS011;40360;52.992;6.796;2022-08-25T15:40:20;3.47;;;2.92;;
54125;SDS011;40360;52.992;6.796;2022-08-25T15:42:46;3.78;;;3.22;;
54125;SDS011;40360;52.992;6.796;2022-08-25T15:45:12;6.22;;;3.78;;
54125;SDS011;40360;52.992;6.796;2022-08-25T15:47:38;5.63;;;3.30;;
54125;SDS011;40360;52.992;6.796;2022-08-25T15:50:09;4.57;;;3.10;;
54125;SDS011;40360;52.992;6.796;2022-08-25T15:52:39;3.42;;;3.13;;
54125;SDS011;40360;52.992;6.796;2022-08-25T15:55:06;6.50;;;3.83;;
54125;SDS011;40360;52.992;6.796;2022-08-25T15:57:32;5.00;;;3.50;;
54125;SDS011;40360;52.992;6.796;2022-08-25T15:59:58;3.97;;;3.55;;
54125;SDS011;40360;52.992;6.796;2022-08-25T16:02:24;6.63;;;3.95;;
54125;SDS011;40360;52.992;6.796;2022-08-25T16:04:50;5.80;;;3.85;;
54125;SDS011;40360;52.992;6.796;2022-08-25T16:07:17;8.50;;;3.90;;
54125;SDS011;40360;52.992;6.796;2022-08-25T16:09:44;4.40;;;3.90;;
54125;SDS011;40360;52.992;6.796;2022-08-25T16:12:10;3.83;;;3.42;;
54125;SDS011;40360;52.992;6.796;2022-08-25T16:14:37;3.88;;;3.47;;
54125;SDS011;40360;52.992;6.796;2022-08-25T16:17:03;3.85;;;3.28;;
54125;SDS011;40360;52.992;6.796;2022-08-25T16:19:29;6.68;;;3.53;;
54125;SDS011;40360;52.992;6.796;2022-08-25T16:21:56;15.98;;;4.25;;
54125;SDS011;40360;52.992;6.796;2022-08-25T16:24:23;7.35;;;3.67;;
54125;SDS011;40360;52.992;6.796;2022-08-25T16:26:49;5.05;;;3.78;;
54125;SDS011;40360;52.992;6.796;2022-08-25T16:29:15;6.72;;;3.97;;
54125;SDS011;40360;52.992;6.796;2022-08-25T16:31:42;6.65;;;3.50;;
54125;SDS011;40360;52.992;6.796;2022-08-25T16:34:08;4.07;;;3.40;;
54125;SDS011;40360;52.992;6.796;2022-08-25T16:36:34;5.47;;;3.80;;
54125;SDS011;40360;52.992;6.796;2022-08-25T16:39:01;6.65;;;3.85;;
54125;SDS011;40360;52.992;6.796;2022-08-25T16:41:28;5.57;;;3.88;;
54125;SDS011;40360;52.992;6.796;2022-08-25T16:43:58;4.32;;;3.78;;
54125;SDS011;40360;52.992;6.796;2022-08-25T16:46:25;3.92;;;3.63;;
54125;SDS011;40360;52.992;6.796;2022-08-25T16:48:51;6.15;;;3.58;;
54125;SDS011;40360;52.992;6.796;2022-08-25T16:51:18;4.85;;;3.45;;
54125;SDS011;40360;52.992;6.796;2022-08-25T16:53:44;7.75;;;3.90;;
54125;SDS011;40360;52.992;6.796;2022-08-25T16:56:31;5.88;;;3.42;;
54125;SDS011;40360;52.992;6.796;2022-08-25T16:58:59;3.92;;;3.55;;
54125;SDS011;40360;52.992;6.796;2022-08-25T17:01:26;6.53;;;3.53;;
54125;SDS011;40360;52.992;6.796;2022-08-25T17:03:55;3.72;;;3.33;;
54125;SDS011;40360;52.992;6.796;2022-08-25T17:06:22;3.97;;;3.50;;
54125;SDS011;40360;52.992;6.796;2022-08-25T17:08:49;4.53;;;3.30;;
54125;SDS011;40360;52.992;6.796;2022-08-25T17:11:25;5.95;;;3.40;;
54125;SDS011;40360;52.992;6.796;2022-08-25T17:13:56;5.50;;;3.70;;